sensor_id;sensor_type;location;lat;lon;timestamp;P1;durP1;ratioP1;P2;durP2;ratioP2
73550;SDS011;61816;53.582;10.096;2024-03-07T00:01:46;79.85;;;32.33;;
73550;SDS011;61816;53.582;10.096;2024-03-07T00:04:12;70.25;;;33.28;;
73550;SDS011;61816;53.582;10.096;2024-03-07T00:06:37;75.53;;;33.63;;
73550;SDS011;61816;53.582;10.096;2024-03-07T00:09:03;68.60;;;32.30;;
73550;SDS011;61816;53.582;10.096;2024-03-07T00:11:28;63.38;;;29.75;;
73550;SDS011;61816;53.582;10.096;2024-03-07T00:13:54;69.97;;;29.95;;
73550;SDS011;61816;53.582;10.096;2024-03-07T00:16:20;65.30;;;30.88;;
73550;SDS011;61816;53.582;10.096;2024-03-07T00:18:45;65.60;;;29.67;;
73550;SDS011;61816;53.582;10.096;2024-03-07T00:21:10;60.47;;;29.05;;
73550;SDS011;61816;53.582;10.096;2024-03-07T00:23:36;64.90;;;29.05;;
73550;SDS011;61816;53.582;10.096;2024-03-07T00:26:01;66.25;;;29.20;;
73550;SDS011;61816;53.582;10.096;2024-03-07T00:28:27;61.45;;;28.10;;
73550;SDS011;61816;53.582;10.096;2024-03-07T00:30:57;63.28;;;27.42;;
73550;SDS011;61816;53.582;10.096;2024-03-07T00:33:22;65.45;;;26.58;;
73550;SDS011;61816;53.582;10.096;2024-03-07T00:35:48;67.93;;;26.40;;
73550;SDS011;61816;53.582;10.096;2024-03-07T00:38:13;57.17;;;26.20;;
73550;SDS011;61816;53.582;10.096;2024-03-07T00:40:38;70.35;;;28.35;;
73550;SDS011;61816;53.582;10.096;2024-03-07T00:43:03;71.00;;;27.83;;
73550;SDS011;61816;53.582;10.096;2024-03-07T00:45:30;53.83;;;25.35;;
73550;SDS011;61816;53.582;10.096;2024-03-07T00:47:57;65.80;;;28.08;;
73550;SDS011;61816;53.582;10.096;2024-03-07T00:50:23;64.47;;;26.70;;
73550;SDS011;61816;53.582;10.096;2024-03-07T00:52:49;74.35;;;29.40;;
73550;SDS011;61816;53.582;10.096;2024-03-07T00:55:17;62.40;;;28.42;;
73550;SDS011;61816;53.582;10.096;2024-03-07T00:57:43;67.60;;;26.73;;
73550;SDS011;61816;53.582;10.096;2024-03-07T01:00:08;75.10;;;28.75;;
73550;SDS011;61816;53.582;10.096;2024-03-07T01:02:42;79.32;;;30.25;;
73550;SDS011;61816;53.582;10.096;2024-03-07T01:05:09;77.88;;;29.73;;
73550;SDS011;61816;53.582;10.096;2024-03-07T01:07:35;75.85;;;30.67;;
73550;SDS011;61816;53.582;10.096;2024-03-07T01:10:00;79.13;;;29.70;;
73550;SDS011;61816;53.582;10.096;2024-03-07T01:12:27;71.43;;;29.15;;
73550;SDS011;61816;53.582;10.096;2024-03-07T01:14:55;73.25;;;28.60;;
73550;SDS011;61816;53.582;10.096;2024-03-07T01:17:22;74.47;;;27.73;;
73550;SDS011;61816;53.582;10.096;2024-03-07T01:19:47;72.38;;;29.45;;
73550;SDS011;61816;53.582;10.096;2024-03-07T01:22:12;67.13;;;27.88;;
73550;SDS011;61816;53.582;10.096;2024-03-07T01:24:38;65.35;;;27.33;;
73550;SDS011;61816;53.582;10.096;2024-03-07T01:27:04;66.75;;;29.23;;
73550;SDS011;61816;53.582;10.096;2024-03-07T01:29:30;64.00;;;25.90;;
73550;SDS011;61816;53.582;10.096;2024-03-07T01:31:55;66.25;;;28.83;;
73550;SDS011;61816;53.582;10.096;2024-03-07T01:34:20;70.72;;;28.77;;
73550;SDS011;61816;53.582;10.096;2024-03-07T01:36:45;65.75;;;26.77;;
73550;SDS011;61816;53.582;10.096;2024-03-07T01:39:11;73.00;;;30.40;;
73550;SDS011;61816;53.582;10.096;2024-03-07T01:41:36;71.82;;;28.95;;
73550;SDS011;61816;53.582;10.096;2024-03-07T01:44:01;69.05;;;28.60;;
73550;SDS011;61816;53.582;10.096;2024-03-07T01:46:27;72.90;;;29.02;;
73550;SDS011;61816;53.582;10.096;2024-03-07T01:48:52;61.70;;;28.15;;
73550;SDS011;61816;53.582;10.096;2024-03-07T01:51:18;60.88;;;28.48;;
73550;SDS011;61816;53.582;10.096;2024-03-07T01:53:44;64.50;;;28.92;;
73550;SDS011;61816;53.582;10.096;2024-03-07T01:56:10;71.25;;;29.95;;
73550;SDS011;61816;53.582;10.096;2024-03-07T01:58:36;67.82;;;29.70;;
73550;SDS011;61816;53.582;10.096;2024-03-07T02:01:01;68.70;;;29.75;;
73550;SDS011;61816;53.582;10.096;2024-03-07T02:03:26;74.97;;;31.15;;
73550;SDS011;61816;53.582;10.096;2024-03-07T02:05:52;73.85;;;31.02;;
73550;SDS011;61816;53.582;10.096;2024-03-07T02:08:17;69.35;;;31.17;;
73550;SDS011;61816;53.582;10.096;2024-03-07T02:10:44;69.97;;;33.10;;
73550;SDS011;61816;53.582;10.096;2024-03-07T02:13:10;66.82;;;30.92;;
73550;SDS011;61816;53.582;10.096;2024-03-07T02:15:36;74.32;;;33.60;;
73550;SDS011;61816;53.582;10.096;2024-03-07T02:18:01;75.75;;;32.85;;
73550;SDS011;61816;53.582;10.096;2024-03-07T02:20:26;73.35;;;31.90;;
73550;SDS011;61816;53.582;10.096;2024-03-07T02:22:53;68.88;;;32.85;;
73550;SDS011;61816;53.582;10.096;2024-03-07T02:25:19;67.70;;;30.13;;
73550;SDS011;61816;53.582;10.096;2024-03-07T02:27:44;72.95;;;32.00;;
73550;SDS011;61816;53.582;10.096;2024-03-07T02:30:10;70.05;;;29.73;;
73550;SDS011;61816;53.582;10.096;2024-03-07T02:32:37;67.15;;;30.63;;
73550;SDS011;61816;53.582;10.096;2024-03-07T02:35:03;66.85;;;29.45;;
73550;SDS011;61816;53.582;10.096;2024-03-07T02:37:29;69.03;;;29.90;;
73550;SDS011;61816;53.582;10.096;2024-03-07T02:39:54;66.20;;;30.13;;
73550;SDS011;61816;53.582;10.096;2024-03-07T02:42:19;71.28;;;32.65;;
73550;SDS011;61816;53.582;10.096;2024-03-07T02:44:45;61.97;;;29.88;;
73550;SDS011;61816;53.582;10.096;2024-03-07T02:47:10;66.65;;;28.70;;
73550;SDS011;61816;53.582;10.096;2024-03-07T02:49:35;59.05;;;26.88;;
73550;SDS011;61816;53.582;10.096;2024-03-07T02:52:00;60.25;;;28.90;;
73550;SDS011;61816;53.582;10.096;2024-03-07T02:54:26;58.92;;;26.67;;
73550;SDS011;61816;53.582;10.096;2024-03-07T02:56:51;62.53;;;28.23;;
73550;SDS011;61816;53.582;10.096;2024-03-07T02:59:16;64.63;;;27.90;;
73550;SDS011;61816;53.582;10.096;2024-03-07T03:01:41;51.92;;;24.67;;
73550;SDS011;61816;53.582;10.096;2024-03-07T03:04:07;63.60;;;24.80;;
73550;SDS011;61816;53.582;10.096;2024-03-07T03:06:32;55.75;;;25.95;;
73550;SDS011;61816;53.582;10.096;2024-03-07T03:08:58;58.88;;;25.45;;
73550;SDS011;61816;53.582;10.096;2024-03-07T03:11:23;54.63;;;25.63;;
73550;SDS011;61816;53.582;10.096;2024-03-07T03:13:50;52.35;;;24.00;;
73550;SDS011;61816;53.582;10.096;2024-03-07T03:16:16;56.88;;;24.70;;
73550;SDS011;61816;53.582;10.096;2024-03-07T03:18:41;61.28;;;24.50;;
73550;SDS011;61816;53.582;10.096;2024-03-07T03:21:06;51.10;;;24.00;;
73550;SDS011;61816;53.582;10.096;2024-03-07T03:23:32;52.63;;;25.42;;
73550;SDS011;61816;53.582;10.096;2024-03-07T03:25:58;53.05;;;23.33;;
73550;SDS011;61816;53.582;10.096;2024-03-07T03:28:24;53.05;;;24.20;;
73550;SDS011;61816;53.582;10.096;2024-03-07T03:30:50;53.38;;;25.30;;
73550;SDS011;61816;53.582;10.096;2024-03-07T03:33:16;50.10;;;22.95;;
73550;SDS011;61816;53.582;10.096;2024-03-07T03:35:41;61.45;;;22.55;;
73550;SDS011;61816;53.582;10.096;2024-03-07T03:38:06;44.38;;;21.98;;
73550;SDS011;61816;53.582;10.096;2024-03-07T03:40:32;52.50;;;23.67;;
73550;SDS011;61816;53.582;10.096;2024-03-07T03:42:57;61.28;;;23.45;;
73550;SDS011;61816;53.582;10.096;2024-03-07T03:45:23;64.10;;;23.73;;
73550;SDS011;61816;53.582;10.096;2024-03-07T03:47:50;63.70;;;24.70;;
73550;SDS011;61816;53.582;10.096;2024-03-07T03:50:15;58.35;;;23.50;;
73550;SDS011;61816;53.582;10.096;2024-03-07T03:52:41;57.75;;;25.35;;
73550;SDS011;61816;53.582;10.096;2024-03-07T03:55:06;69.72;;;27.92;;
73550;SDS011;61816;53.582;10.096;2024-03-07T03:57:32;56.88;;;26.27;;
73550;SDS011;61816;53.582;10.096;2024-03-07T03:59:58;68.45;;;26.33;;
73550;SDS011;61816;53.582;10.096;2024-03-07T04:02:24;64.90;;;25.98;;
73550;SDS011;61816;53.582;10.096;2024-03-07T04:04:52;63.70;;;26.88;;
73550;SDS011;61816;53.582;10.096;2024-03-07T04:07:20;52.72;;;24.95;;
73550;SDS011;61816;53.582;10.096;2024-03-07T04:09:46;50.97;;;24.67;;
73550;SDS011;61816;53.582;10.096;2024-03-07T04:12:11;48.92;;;24.25;;
73550;SDS011;61816;53.582;10.096;2024-03-07T04:14:37;52.70;;;23.27;;
73550;SDS011;61816;53.582;10.096;2024-03-07T04:17:04;49.20;;;24.75;;
73550;SDS011;61816;53.582;10.096;2024-03-07T04:19:32;52.28;;;23.02;;
73550;SDS011;61816;53.582;10.096;2024-03-07T04:21:58;48.90;;;22.98;;
73550;SDS011;61816;53.582;10.096;2024-03-07T04:24:23;53.47;;;24.90;;
73550;SDS011;61816;53.582;10.096;2024-03-07T04:26:48;54.17;;;22.55;;
73550;SDS011;61816;53.582;10.096;2024-03-07T04:29:16;48.92;;;23.13;;
73550;SDS011;61816;53.582;10.096;2024-03-07T04:31:42;46.13;;;24.55;;
73550;SDS011;61816;53.582;10.096;2024-03-07T04:34:09;44.97;;;22.83;;
73550;SDS011;61816;53.582;10.096;2024-03-07T04:36:34;47.38;;;23.83;;
73550;SDS011;61816;53.582;10.096;2024-03-07T04:39:00;45.15;;;23.15;;
73550;SDS011;61816;53.582;10.096;2024-03-07T04:41:25;45.20;;;23.67;;
73550;SDS011;61816;53.582;10.096;2024-03-07T04:43:50;44.97;;;22.60;;
73550;SDS011;61816;53.582;10.096;2024-03-07T04:46:15;48.97;;;23.45;;
73550;SDS011;61816;53.582;10.096;2024-03-07T04:48:41;44.17;;;20.42;;
73550;SDS011;61816;53.582;10.096;2024-03-07T04:51:07;46.22;;;21.60;;
73550;SDS011;61816;53.582;10.096;2024-03-07T04:53:33;43.85;;;22.63;;
73550;SDS011;61816;53.582;10.096;2024-03-07T04:55:58;40.25;;;20.42;;
73550;SDS011;61816;53.582;10.096;2024-03-07T04:58:23;46.67;;;22.73;;
73550;SDS011;61816;53.582;10.096;2024-03-07T05:00:49;48.97;;;23.50;;
73550;SDS011;61816;53.582;10.096;2024-03-07T05:03:14;51.38;;;22.92;;
73550;SDS011;61816;53.582;10.096;2024-03-07T05:05:42;50.72;;;23.90;;
73550;SDS011;61816;53.582;10.096;2024-03-07T05:08:07;45.85;;;22.33;;
73550;SDS011;61816;53.582;10.096;2024-03-07T05:10:32;43.70;;;22.30;;
73550;SDS011;61816;53.582;10.096;2024-03-07T05:12:57;41.75;;;22.65;;
73550;SDS011;61816;53.582;10.096;2024-03-07T05:15:26;49.50;;;20.85;;
73550;SDS011;61816;53.582;10.096;2024-03-07T05:17:51;44.78;;;22.30;;
73550;SDS011;61816;53.582;10.096;2024-03-07T05:20:17;37.40;;;19.80;;
73550;SDS011;61816;53.582;10.096;2024-03-07T05:22:42;43.25;;;20.50;;
73550;SDS011;61816;53.582;10.096;2024-03-07T05:25:15;42.15;;;20.80;;
73550;SDS011;61816;53.582;10.096;2024-03-07T05:27:45;38.30;;;20.05;;
73550;SDS011;61816;53.582;10.096;2024-03-07T05:30:10;44.25;;;19.80;;
73550;SDS011;61816;53.582;10.096;2024-03-07T05:32:36;39.63;;;20.42;;
73550;SDS011;61816;53.582;10.096;2024-03-07T05:35:02;41.72;;;21.17;;
73550;SDS011;61816;53.582;10.096;2024-03-07T05:37:27;40.20;;;19.67;;
73550;SDS011;61816;53.582;10.096;2024-03-07T05:39:52;34.85;;;18.42;;
73550;SDS011;61816;53.582;10.096;2024-03-07T05:42:18;40.22;;;19.75;;
73550;SDS011;61816;53.582;10.096;2024-03-07T05:44:43;41.22;;;20.00;;
73550;SDS011;61816;53.582;10.096;2024-03-07T05:47:09;34.92;;;20.27;;
73550;SDS011;61816;53.582;10.096;2024-03-07T05:49:34;35.42;;;19.08;;
73550;SDS011;61816;53.582;10.096;2024-03-07T05:52:00;43.38;;;20.40;;
73550;SDS011;61816;53.582;10.096;2024-03-07T05:54:28;42.15;;;20.27;;
73550;SDS011;61816;53.582;10.096;2024-03-07T05:56:54;35.85;;;18.98;;
73550;SDS011;61816;53.582;10.096;2024-03-07T05:59:19;31.60;;;18.15;;
73550;SDS011;61816;53.582;10.096;2024-03-07T06:01:45;38.25;;;20.10;;
73550;SDS011;61816;53.582;10.096;2024-03-07T06:04:11;37.47;;;19.48;;
73550;SDS011;61816;53.582;10.096;2024-03-07T06:06:36;50.20;;;21.33;;
73550;SDS011;61816;53.582;10.096;2024-03-07T06:09:02;39.85;;;19.75;;
73550;SDS011;61816;53.582;10.096;2024-03-07T06:11:41;43.13;;;18.17;;
73550;SDS011;61816;53.582;10.096;2024-03-07T06:14:09;33.38;;;18.40;;
73550;SDS011;61816;53.582;10.096;2024-03-07T06:16:38;38.15;;;19.38;;
73550;SDS011;61816;53.582;10.096;2024-03-07T06:19:04;39.45;;;20.27;;
73550;SDS011;61816;53.582;10.096;2024-03-07T06:21:29;34.50;;;18.65;;
73550;SDS011;61816;53.582;10.096;2024-03-07T06:23:58;37.30;;;19.73;;
73550;SDS011;61816;53.582;10.096;2024-03-07T06:26:29;39.53;;;18.95;;
73550;SDS011;61816;53.582;10.096;2024-03-07T06:29:13;31.52;;;17.55;;
73550;SDS011;61816;53.582;10.096;2024-03-07T06:31:42;36.97;;;18.98;;
73550;SDS011;61816;53.582;10.096;2024-03-07T06:34:07;40.13;;;19.33;;
73550;SDS011;61816;53.582;10.096;2024-03-07T06:36:35;32.42;;;18.52;;
73550;SDS011;61816;53.582;10.096;2024-03-07T06:39:01;33.55;;;17.50;;
73550;SDS011;61816;53.582;10.096;2024-03-07T06:41:26;36.22;;;19.85;;
73550;SDS011;61816;53.582;10.096;2024-03-07T06:43:51;33.38;;;17.45;;
73550;SDS011;61816;53.582;10.096;2024-03-07T06:46:20;32.40;;;18.55;;
73550;SDS011;61816;53.582;10.096;2024-03-07T06:48:45;33.55;;;18.42;;
73550;SDS011;61816;53.582;10.096;2024-03-07T06:51:10;37.47;;;17.55;;
73550;SDS011;61816;53.582;10.096;2024-03-07T06:53:35;34.78;;;18.35;;
73550;SDS011;61816;53.582;10.096;2024-03-07T06:56:01;53.88;;;21.65;;
73550;SDS011;61816;53.582;10.096;2024-03-07T06:58:26;42.67;;;20.70;;
73550;SDS011;61816;53.582;10.096;2024-03-07T07:00:52;32.83;;;18.52;;
73550;SDS011;61816;53.582;10.096;2024-03-07T07:03:19;42.65;;;20.05;;
73550;SDS011;61816;53.582;10.096;2024-03-07T07:05:45;36.13;;;20.02;;
73550;SDS011;61816;53.582;10.096;2024-03-07T07:08:10;34.53;;;18.45;;
73550;SDS011;61816;53.582;10.096;2024-03-07T07:10:36;39.08;;;18.27;;
73550;SDS011;61816;53.582;10.096;2024-03-07T07:13:01;42.42;;;17.80;;
73550;SDS011;61816;53.582;10.096;2024-03-07T07:15:29;34.78;;;19.40;;
73550;SDS011;61816;53.582;10.096;2024-03-07T07:17:55;32.30;;;16.23;;
73550;SDS011;61816;53.582;10.096;2024-03-07T07:20:20;27.85;;;15.68;;
73550;SDS011;61816;53.582;10.096;2024-03-07T07:22:45;34.17;;;17.73;;
73550;SDS011;61816;53.582;10.096;2024-03-07T07:25:11;34.33;;;17.13;;
73550;SDS011;61816;53.582;10.096;2024-03-07T07:27:40;34.30;;;18.27;;
73550;SDS011;61816;53.582;10.096;2024-03-07T07:30:06;36.30;;;18.50;;
73550;SDS011;61816;53.582;10.096;2024-03-07T07:32:31;35.78;;;18.23;;
73550;SDS011;61816;53.582;10.096;2024-03-07T07:34:57;32.42;;;17.25;;
73550;SDS011;61816;53.582;10.096;2024-03-07T07:37:22;34.20;;;17.50;;
73550;SDS011;61816;53.582;10.096;2024-03-07T07:39:48;33.10;;;16.92;;
73550;SDS011;61816;53.582;10.096;2024-03-07T07:42:13;31.85;;;16.13;;
73550;SDS011;61816;53.582;10.096;2024-03-07T07:44:39;39.90;;;18.33;;
73550;SDS011;61816;53.582;10.096;2024-03-07T07:47:05;36.25;;;19.30;;
73550;SDS011;61816;53.582;10.096;2024-03-07T07:49:31;42.58;;;20.20;;
73550;SDS011;61816;53.582;10.096;2024-03-07T07:51:56;36.45;;;19.55;;
73550;SDS011;61816;53.582;10.096;2024-03-07T07:54:21;40.17;;;20.10;;
73550;SDS011;61816;53.582;10.096;2024-03-07T07:56:46;39.85;;;20.25;;
73550;SDS011;61816;53.582;10.096;2024-03-07T07:59:13;34.38;;;18.92;;
73550;SDS011;61816;53.582;10.096;2024-03-07T08:01:38;39.65;;;17.85;;
73550;SDS011;61816;53.582;10.096;2024-03-07T08:04:04;44.33;;;19.17;;
73550;SDS011;61816;53.582;10.096;2024-03-07T08:06:29;33.63;;;18.15;;
73550;SDS011;61816;53.582;10.096;2024-03-07T08:08:55;32.03;;;18.55;;
73550;SDS011;61816;53.582;10.096;2024-03-07T08:11:20;42.55;;;21.10;;
73550;SDS011;61816;53.582;10.096;2024-03-07T08:13:45;39.67;;;19.25;;
73550;SDS011;61816;53.582;10.096;2024-03-07T08:16:14;30.85;;;18.23;;
73550;SDS011;61816;53.582;10.096;2024-03-07T08:18:39;42.60;;;17.58;;
73550;SDS011;61816;53.582;10.096;2024-03-07T08:21:05;31.67;;;15.63;;
73550;SDS011;61816;53.582;10.096;2024-03-07T08:23:30;35.05;;;16.73;;
73550;SDS011;61816;53.582;10.096;2024-03-07T08:25:56;28.73;;;14.80;;
73550;SDS011;61816;53.582;10.096;2024-03-07T08:28:21;27.20;;;15.23;;
73550;SDS011;61816;53.582;10.096;2024-03-07T08:30:47;36.65;;;16.20;;
73550;SDS011;61816;53.582;10.096;2024-03-07T08:33:12;29.50;;;15.25;;
73550;SDS011;61816;53.582;10.096;2024-03-07T08:35:39;25.20;;;13.75;;
73550;SDS011;61816;53.582;10.096;2024-03-07T08:38:04;29.15;;;14.45;;
73550;SDS011;61816;53.582;10.096;2024-03-07T08:40:30;30.33;;;13.98;;
73550;SDS011;61816;53.582;10.096;2024-03-07T08:42:59;28.52;;;14.85;;
73550;SDS011;61816;53.582;10.096;2024-03-07T08:45:25;37.83;;;15.57;;
73550;SDS011;61816;53.582;10.096;2024-03-07T08:47:51;30.25;;;15.82;;
73550;SDS011;61816;53.582;10.096;2024-03-07T08:50:17;26.92;;;15.27;;
73550;SDS011;61816;53.582;10.096;2024-03-07T08:52:43;28.00;;;15.30;;
73550;SDS011;61816;53.582;10.096;2024-03-07T08:55:09;31.95;;;16.73;;
73550;SDS011;61816;53.582;10.096;2024-03-07T08:57:35;37.42;;;17.10;;
73550;SDS011;61816;53.582;10.096;2024-03-07T09:00:01;31.10;;;15.88;;
73550;SDS011;61816;53.582;10.096;2024-03-07T09:02:33;40.53;;;17.27;;
73550;SDS011;61816;53.582;10.096;2024-03-07T09:05:00;34.35;;;17.70;;
73550;SDS011;61816;53.582;10.096;2024-03-07T09:07:25;32.88;;;17.17;;
73550;SDS011;61816;53.582;10.096;2024-03-07T09:09:50;39.55;;;19.83;;
73550;SDS011;61816;53.582;10.096;2024-03-07T09:12:15;32.60;;;17.65;;
73550;SDS011;61816;53.582;10.096;2024-03-07T09:14:40;36.80;;;17.73;;
73550;SDS011;61816;53.582;10.096;2024-03-07T09:17:06;44.17;;;20.00;;
73550;SDS011;61816;53.582;10.096;2024-03-07T09:19:31;43.78;;;20.38;;
73550;SDS011;61816;53.582;10.096;2024-03-07T09:21:56;44.10;;;20.38;;
73550;SDS011;61816;53.582;10.096;2024-03-07T09:24:21;43.38;;;21.40;;
73550;SDS011;61816;53.582;10.096;2024-03-07T09:26:48;38.80;;;19.17;;
73550;SDS011;61816;53.582;10.096;2024-03-07T09:29:13;41.55;;;19.75;;
73550;SDS011;61816;53.582;10.096;2024-03-07T09:31:39;45.22;;;21.08;;
73550;SDS011;61816;53.582;10.096;2024-03-07T09:34:05;32.70;;;18.65;;
73550;SDS011;61816;53.582;10.096;2024-03-07T09:36:30;33.30;;;17.85;;
73550;SDS011;61816;53.582;10.096;2024-03-07T09:38:55;42.75;;;20.33;;
73550;SDS011;61816;53.582;10.096;2024-03-07T09:41:22;51.30;;;21.90;;
73550;SDS011;61816;53.582;10.096;2024-03-07T09:43:50;53.72;;;22.08;;
73550;SDS011;61816;53.582;10.096;2024-03-07T09:46:16;41.42;;;22.25;;
73550;SDS011;61816;53.582;10.096;2024-03-07T09:48:42;49.05;;;23.00;;
73550;SDS011;61816;53.582;10.096;2024-03-07T09:51:09;49.45;;;22.92;;
73550;SDS011;61816;53.582;10.096;2024-03-07T09:53:37;46.30;;;22.38;;
73550;SDS011;61816;53.582;10.096;2024-03-07T09:56:02;47.97;;;21.70;;
73550;SDS011;61816;53.582;10.096;2024-03-07T09:58:28;43.60;;;21.50;;
73550;SDS011;61816;53.582;10.096;2024-03-07T10:00:56;43.25;;;20.50;;
73550;SDS011;61816;53.582;10.096;2024-03-07T10:03:21;40.75;;;22.27;;
73550;SDS011;61816;53.582;10.096;2024-03-07T10:05:48;48.75;;;22.83;;
73550;SDS011;61816;53.582;10.096;2024-03-07T10:08:14;50.72;;;22.77;;
73550;SDS011;61816;53.582;10.096;2024-03-07T10:10:39;46.53;;;24.00;;
73550;SDS011;61816;53.582;10.096;2024-03-07T10:13:04;42.65;;;23.65;;
73550;SDS011;61816;53.582;10.096;2024-03-07T10:15:31;45.90;;;22.35;;
73550;SDS011;61816;53.582;10.096;2024-03-07T10:17:57;40.50;;;20.92;;
73550;SDS011;61816;53.582;10.096;2024-03-07T10:20:22;41.80;;;21.48;;
73550;SDS011;61816;53.582;10.096;2024-03-07T10:22:49;49.58;;;22.67;;
73550;SDS011;61816;53.582;10.096;2024-03-07T10:25:16;45.67;;;22.23;;
73550;SDS011;61816;53.582;10.096;2024-03-07T10:27:42;42.78;;;21.00;;
73550;SDS011;61816;53.582;10.096;2024-03-07T10:30:09;48.15;;;22.77;;
73550;SDS011;61816;53.582;10.096;2024-03-07T10:32:34;64.65;;;22.75;;
73550;SDS011;61816;53.582;10.096;2024-03-07T10:35:01;35.08;;;21.10;;
73550;SDS011;61816;53.582;10.096;2024-03-07T10:37:28;44.10;;;21.98;;
73550;SDS011;61816;53.582;10.096;2024-03-07T10:39:54;41.90;;;21.88;;
73550;SDS011;61816;53.582;10.096;2024-03-07T10:42:19;46.60;;;20.40;;
73550;SDS011;61816;53.582;10.096;2024-03-07T10:44:47;38.15;;;20.48;;
73550;SDS011;61816;53.582;10.096;2024-03-07T10:47:16;34.85;;;19.42;;
73550;SDS011;61816;53.582;10.096;2024-03-07T10:50:45;40.17;;;20.35;;
73550;SDS011;61816;53.582;10.096;2024-03-07T10:52:34;37.45;;;19.65;;
73550;SDS011;61816;53.582;10.096;2024-03-07T10:55:23;45.10;;;21.77;;
73550;SDS011;61816;53.582;10.096;2024-03-07T10:57:59;36.83;;;20.08;;
73550;SDS011;61816;53.582;10.096;2024-03-07T11:00:27;44.90;;;20.55;;
73550;SDS011;61816;53.582;10.096;2024-03-07T11:03:08;42.42;;;21.45;;
73550;SDS011;61816;53.582;10.096;2024-03-07T11:05:34;35.80;;;20.02;;
73550;SDS011;61816;53.582;10.096;2024-03-07T11:08:00;42.65;;;20.65;;
73550;SDS011;61816;53.582;10.096;2024-03-07T11:10:30;46.60;;;21.57;;
73550;SDS011;61816;53.582;10.096;2024-03-07T11:12:55;45.67;;;21.20;;
73550;SDS011;61816;53.582;10.096;2024-03-07T11:15:23;52.47;;;23.08;;
73550;SDS011;61816;53.582;10.096;2024-03-07T11:17:51;49.83;;;22.17;;
73550;SDS011;61816;53.582;10.096;2024-03-07T11:20:22;38.78;;;20.50;;
73550;SDS011;61816;53.582;10.096;2024-03-07T11:22:48;44.45;;;21.50;;
73550;SDS011;61816;53.582;10.096;2024-03-07T11:25:16;39.60;;;21.23;;
73550;SDS011;61816;53.582;10.096;2024-03-07T11:27:44;40.58;;;21.13;;
73550;SDS011;61816;53.582;10.096;2024-03-07T11:30:16;50.33;;;19.20;;
73550;SDS011;61816;53.582;10.096;2024-03-07T11:32:42;39.40;;;20.42;;
73550;SDS011;61816;53.582;10.096;2024-03-07T11:35:12;40.88;;;19.90;;
73550;SDS011;61816;53.582;10.096;2024-03-07T11:37:41;40.50;;;20.70;;
73550;SDS011;61816;53.582;10.096;2024-03-07T11:40:58;35.83;;;20.40;;
73550;SDS011;61816;53.582;10.096;2024-03-07T11:42:59;33.35;;;18.70;;
73550;SDS011;61816;53.582;10.096;2024-03-07T11:45:25;52.40;;;21.23;;
73550;SDS011;61816;53.582;10.096;2024-03-07T11:47:51;43.03;;;20.65;;
73550;SDS011;61816;53.582;10.096;2024-03-07T11:50:25;41.42;;;20.70;;
73550;SDS011;61816;53.582;10.096;2024-03-07T11:52:51;43.22;;;20.30;;
73550;SDS011;61816;53.582;10.096;2024-03-07T11:55:17;46.13;;;23.15;;
73550;SDS011;61816;53.582;10.096;2024-03-07T11:57:44;40.92;;;22.40;;
73550;SDS011;61816;53.582;10.096;2024-03-07T12:00:11;43.45;;;21.45;;
73550;SDS011;61816;53.582;10.096;2024-03-07T12:02:37;49.28;;;22.48;;
73550;SDS011;61816;53.582;10.096;2024-03-07T12:05:03;40.78;;;22.17;;
73550;SDS011;61816;53.582;10.096;2024-03-07T12:07:30;44.72;;;23.08;;
73550;SDS011;61816;53.582;10.096;2024-03-07T12:09:55;42.72;;;21.38;;
73550;SDS011;61816;53.582;10.096;2024-03-07T12:12:21;40.33;;;22.42;;
73550;SDS011;61816;53.582;10.096;2024-03-07T12:14:47;44.65;;;23.92;;
73550;SDS011;61816;53.582;10.096;2024-03-07T12:17:13;44.90;;;22.00;;
73550;SDS011;61816;53.582;10.096;2024-03-07T12:19:39;45.33;;;23.98;;
73550;SDS011;61816;53.582;10.096;2024-03-07T12:22:07;43.22;;;22.23;;
73550;SDS011;61816;53.582;10.096;2024-03-07T12:24:38;49.97;;;21.98;;
73550;SDS011;61816;53.582;10.096;2024-03-07T12:29:32;45.30;;;23.48;;
73550;SDS011;61816;53.582;10.096;2024-03-07T12:31:58;53.08;;;23.23;;
73550;SDS011;61816;53.582;10.096;2024-03-07T12:34:24;49.88;;;22.80;;
73550;SDS011;61816;53.582;10.096;2024-03-07T12:36:52;44.95;;;23.63;;
73550;SDS011;61816;53.582;10.096;2024-03-07T12:39:26;50.28;;;22.67;;
73550;SDS011;61816;53.582;10.096;2024-03-07T12:42:20;39.67;;;22.70;;
73550;SDS011;61816;53.582;10.096;2024-03-07T12:44:46;52.47;;;23.80;;
73550;SDS011;61816;53.582;10.096;2024-03-07T12:47:15;47.47;;;22.05;;
73550;SDS011;61816;53.582;10.096;2024-03-07T12:49:43;44.72;;;22.95;;
73550;SDS011;61816;53.582;10.096;2024-03-07T12:52:09;48.72;;;21.60;;
73550;SDS011;61816;53.582;10.096;2024-03-07T12:54:35;41.17;;;23.20;;
73550;SDS011;61816;53.582;10.096;2024-03-07T12:57:09;48.00;;;24.67;;
73550;SDS011;61816;53.582;10.096;2024-03-07T12:59:35;41.22;;;21.98;;
73550;SDS011;61816;53.582;10.096;2024-03-07T13:02:10;49.20;;;24.40;;
73550;SDS011;61816;53.582;10.096;2024-03-07T13:04:38;47.75;;;23.38;;
73550;SDS011;61816;53.582;10.096;2024-03-07T13:07:04;54.67;;;25.88;;
73550;SDS011;61816;53.582;10.096;2024-03-07T13:09:30;45.22;;;24.73;;
73550;SDS011;61816;53.582;10.096;2024-03-07T13:11:56;44.63;;;23.38;;
73550;SDS011;61816;53.582;10.096;2024-03-07T13:14:22;45.83;;;23.52;;
73550;SDS011;61816;53.582;10.096;2024-03-07T13:16:47;62.85;;;23.58;;
73550;SDS011;61816;53.582;10.096;2024-03-07T13:19:12;45.78;;;24.10;;
73550;SDS011;61816;53.582;10.096;2024-03-07T13:21:39;45.40;;;22.35;;
73550;SDS011;61816;53.582;10.096;2024-03-07T13:24:05;48.53;;;22.98;;
73550;SDS011;61816;53.582;10.096;2024-03-07T13:26:30;43.92;;;22.00;;
73550;SDS011;61816;53.582;10.096;2024-03-07T13:28:57;41.25;;;22.67;;
73550;SDS011;61816;53.582;10.096;2024-03-07T13:31:25;46.13;;;23.40;;
73550;SDS011;61816;53.582;10.096;2024-03-07T13:33:51;39.42;;;22.70;;
73550;SDS011;61816;53.582;10.096;2024-03-07T13:36:16;45.05;;;24.50;;
73550;SDS011;61816;53.582;10.096;2024-03-07T13:38:48;47.97;;;24.25;;
73550;SDS011;61816;53.582;10.096;2024-03-07T13:41:14;44.25;;;22.48;;
73550;SDS011;61816;53.582;10.096;2024-03-07T13:43:39;39.65;;;22.42;;
73550;SDS011;61816;53.582;10.096;2024-03-07T13:46:04;45.45;;;23.30;;
73550;SDS011;61816;53.582;10.096;2024-03-07T13:48:29;47.80;;;23.00;;
73550;SDS011;61816;53.582;10.096;2024-03-07T13:50:57;39.60;;;21.67;;
73550;SDS011;61816;53.582;10.096;2024-03-07T13:53:26;43.55;;;23.10;;
73550;SDS011;61816;53.582;10.096;2024-03-07T14:06:41;47.30;;;23.70;;
73550;SDS011;61816;53.582;10.096;2024-03-07T14:14:59;47.10;;;24.17;;
73550;SDS011;61816;53.582;10.096;2024-03-07T14:28:05;46.53;;;22.42;;
73550;SDS011;61816;53.582;10.096;2024-03-07T14:33:05;37.00;;;20.88;;
73550;SDS011;61816;53.582;10.096;2024-03-07T14:35:35;40.88;;;21.40;;
73550;SDS011;61816;53.582;10.096;2024-03-07T14:40:30;54.70;;;21.23;;